createdAt,value
2018-12-17T00:00:53.134Z,26.33
2018-12-17T00:03:20.602Z,26.97
2018-12-17T00:05:48.064Z,25.80
2018-12-17T00:08:15.558Z,28.80
2018-12-17T00:10:43.044Z,26.67
2018-12-17T00:13:10.532Z,23.57
2018-12-17T00:15:38.015Z,24.93
2018-12-17T00:18:05.530Z,29.60
2018-12-17T00:20:33.008Z,25.33
2018-12-17T00:23:00.488Z,25.37
2018-12-17T00:25:27.973Z,26.60
2018-12-17T00:27:55.556Z,24.90
2018-12-17T00:30:23.043Z,27.50
2018-12-17T00:32:51.185Z,21.37
2018-12-17T00:35:18.695Z,28.53
2018-12-17T00:37:47.099Z,24.97
2018-12-17T00:40:15.051Z,24.47
2018-12-17T00:42:42.690Z,27.47
2018-12-17T00:45:10.732Z,24.10
2018-12-17T00:47:38.339Z,25.13
2018-12-17T00:50:05.926Z,25.23
2018-12-17T00:52:33.857Z,26.50
2018-12-17T00:55:01.648Z,25.97
2018-12-17T00:57:29.327Z,25.80
2018-12-17T00:59:56.798Z,28.00
2018-12-17T01:02:24.353Z,26.27
2018-12-17T01:04:51.815Z,25.67
2018-12-17T01:07:21.358Z,26.17
2018-12-17T01:09:48.833Z,28.37
2018-12-17T01:12:16.338Z,26.67
2018-12-17T01:14:43.800Z,28.73
2018-12-17T01:17:11.437Z,23.03
2018-12-17T01:19:38.956Z,27.20
2018-12-17T01:22:06.421Z,24.60
2018-12-17T01:24:33.896Z,26.00
2018-12-17T01:27:01.572Z,25.87
2018-12-17T01:29:29.067Z,24.43
2018-12-17T01:31:56.570Z,24.77
2018-12-17T01:34:24.054Z,23.90
2018-12-17T01:36:51.553Z,22.43
2018-12-17T01:39:19.037Z,29.97
2018-12-17T01:41:46.539Z,24.13
2018-12-17T01:44:14.153Z,25.83
2018-12-17T01:46:41.670Z,27.37
2018-12-17T01:49:09.148Z,27.53
2018-12-17T01:51:36.656Z,26.43
2018-12-17T01:54:04.316Z,27.90
2018-12-17T01:56:31.994Z,27.37
2018-12-17T01:58:59.469Z,24.97
2018-12-17T02:01:26.942Z,23.73
2018-12-17T02:03:54.462Z,25.77
2018-12-17T02:06:21.919Z,24.47
2018-12-17T02:08:49.421Z,24.87
2018-12-17T02:11:16.990Z,29.13
2018-12-17T02:13:44.934Z,24.23
2018-12-17T02:16:12.424Z,22.53
2018-12-17T02:18:39.910Z,25.13
2018-12-17T02:21:07.386Z,27.07
2018-12-17T02:23:35.126Z,26.97
2018-12-17T02:26:02.611Z,23.80
2018-12-17T02:28:35.930Z,24.70
2018-12-17T02:30:59.596Z,27.23
2018-12-17T02:33:27.083Z,20.57
2018-12-17T02:35:54.572Z,24.03
2018-12-17T02:38:22.062Z,27.17
2018-12-17T02:40:49.592Z,28.13
2018-12-17T02:43:17.078Z,28.97
2018-12-17T02:45:44.552Z,29.27
2018-12-17T02:48:12.097Z,29.63
2018-12-17T02:50:39.750Z,24.97
2018-12-17T02:53:07.238Z,29.83
2018-12-17T02:55:34.703Z,28.33
2018-12-17T02:58:02.191Z,26.50
2018-12-17T03:00:29.723Z,28.70
2018-12-17T03:02:57.207Z,29.97
2018-12-17T03:05:24.681Z,29.03
2018-12-17T03:07:52.177Z,34.80
2018-12-17T03:10:19.659Z,27.10
2018-12-17T03:12:47.150Z,29.97
2018-12-17T03:15:14.631Z,31.27
2018-12-17T03:17:42.157Z,29.13
2018-12-17T03:20:09.720Z,33.83
2018-12-17T03:22:37.227Z,30.63
2018-12-17T03:25:04.921Z,27.97
2018-12-17T03:27:32.385Z,27.00
2018-12-17T03:29:59.866Z,24.77
2018-12-17T03:32:27.347Z,28.40
2018-12-17T03:34:54.825Z,22.77
2018-12-17T03:37:22.636Z,20.40
2018-12-17T03:39:50.130Z,23.20
2018-12-17T03:42:17.606Z,22.63
2018-12-17T03:44:45.098Z,22.80
2018-12-17T03:47:12.579Z,24.23
2018-12-17T03:49:40.073Z,21.53
2018-12-17T03:52:07.552Z,20.07
2018-12-17T03:54:35.030Z,21.03
2018-12-17T03:57:02.523Z,21.73
2018-12-17T03:59:30.007Z,19.53
2018-12-17T04:01:57.478Z,17.00
2018-12-17T04:04:24.968Z,23.57
2018-12-17T04:06:52.466Z,20.07
2018-12-17T04:09:19.963Z,22.80
2018-12-17T04:11:47.439Z,20.97
2018-12-17T04:14:14.923Z,20.53
2018-12-17T04:16:42.393Z,20.13
2018-12-17T04:19:09.886Z,23.30
2018-12-17T04:21:37.369Z,19.53
2018-12-17T04:24:04.858Z,21.40
2018-12-17T04:26:32.330Z,20.73
2018-12-17T04:29:06.593Z,25.77
2018-12-17T04:31:29.313Z,24.40
2018-12-17T04:33:56.812Z,22.93
2018-12-17T04:36:24.446Z,23.17
2018-12-17T04:38:52.731Z,27.20
2018-12-17T04:41:20.208Z,21.43
2018-12-17T04:43:47.682Z,21.97
2018-12-17T04:46:15.230Z,21.17
2018-12-17T04:48:42.779Z,23.00
2018-12-17T04:51:10.434Z,25.53
2018-12-17T04:53:37.931Z,27.17
2018-12-17T04:56:05.469Z,23.57
2018-12-17T04:58:33.002Z,22.70
2018-12-17T05:01:00.493Z,31.53
2018-12-17T05:03:27.966Z,22.43
2018-12-17T05:05:55.522Z,28.27
2018-12-17T05:08:22.990Z,24.63
2018-12-17T05:10:50.493Z,25.80
2018-12-17T05:13:18.863Z,25.90
2018-12-17T05:15:47.862Z,28.97
2018-12-17T05:18:15.332Z,27.83
2018-12-17T05:20:42.835Z,40.97
2018-12-17T05:23:10.306Z,24.63
2018-12-17T05:25:38.391Z,23.23
2018-12-17T05:28:05.899Z,23.17
2018-12-17T05:30:34.095Z,29.27
2018-12-17T05:33:02.739Z,25.37
2018-12-17T05:35:30.242Z,25.90
2018-12-17T05:37:58.547Z,26.53
2018-12-17T05:40:26.115Z,28.33
2018-12-17T05:42:53.648Z,25.93
2018-12-17T05:45:21.142Z,29.27
2018-12-17T05:47:48.614Z,22.37
2018-12-17T05:50:16.174Z,28.50
2018-12-17T05:52:43.657Z,26.43
2018-12-17T05:55:11.151Z,25.57
2018-12-17T05:57:39.673Z,24.50
2018-12-17T06:00:08.938Z,21.60
2018-12-17T06:02:36.419Z,23.67
2018-12-17T06:05:04.922Z,23.23
2018-12-17T06:07:32.420Z,24.73
2018-12-17T06:09:59.913Z,22.90
2018-12-17T06:12:27.450Z,25.63
2018-12-17T06:14:54.927Z,23.37
2018-12-17T06:17:22.429Z,26.13
2018-12-17T06:19:49.900Z,28.27
2018-12-17T06:22:17.394Z,24.70
2018-12-17T06:24:44.866Z,27.60
2018-12-17T06:27:13.468Z,21.10
2018-12-17T06:29:40.952Z,23.20
2018-12-17T06:32:08.434Z,21.67
2018-12-17T06:34:35.910Z,25.53
2018-12-17T06:37:03.548Z,21.43
2018-12-17T06:39:31.024Z,22.13
2018-12-17T06:41:58.531Z,28.27
2018-12-17T06:44:26.027Z,20.73
2018-12-17T06:46:53.504Z,25.77
2018-12-17T06:49:20.989Z,24.10
2018-12-17T06:51:48.471Z,26.80
2018-12-17T06:54:16.182Z,29.17
2018-12-17T06:56:43.882Z,23.97
2018-12-17T06:59:11.364Z,23.70
2018-12-17T07:01:38.863Z,21.93
2018-12-17T07:04:06.327Z,25.40
2018-12-17T07:06:34.609Z,27.50
2018-12-17T07:09:02.150Z,22.77
2018-12-17T07:11:29.653Z,25.67
2018-12-17T07:13:57.125Z,23.53
2018-12-17T07:16:24.814Z,25.13
2018-12-17T07:18:52.301Z,23.10
2018-12-17T07:21:19.775Z,22.37
2018-12-17T07:23:47.277Z,22.93
2018-12-17T07:26:14.746Z,22.40
2018-12-17T07:28:42.237Z,23.90
2018-12-17T07:31:09.701Z,20.60
2018-12-17T07:33:37.189Z,24.17
2018-12-17T07:36:04.665Z,25.37
2018-12-17T07:38:32.245Z,17.27
2018-12-17T07:40:59.709Z,18.40
2018-12-17T07:43:27.191Z,23.10
2018-12-17T07:45:54.673Z,21.97
2018-12-17T07:48:22.192Z,17.83
2018-12-17T07:50:49.746Z,19.87
2018-12-17T07:53:17.253Z,22.63
2018-12-17T07:55:44.737Z,19.50
2018-12-17T07:58:12.226Z,18.57
2018-12-17T08:00:39.726Z,22.37
2018-12-17T08:03:07.223Z,29.17
2018-12-17T08:05:34.686Z,19.50
2018-12-17T08:08:02.276Z,20.60
2018-12-17T08:10:29.756Z,19.53
2018-12-17T08:12:58.014Z,20.13
2018-12-17T08:15:25.498Z,18.00
2018-12-17T08:20:57.939Z,16.50
2018-12-17T08:23:25.411Z,14.93
2018-12-17T08:25:52.890Z,15.63
2018-12-17T08:28:21.562Z,14.93
2018-12-17T08:30:49.034Z,14.97
2018-12-17T08:33:16.523Z,12.83
2018-12-17T08:35:44.009Z,12.13
2018-12-17T08:38:11.498Z,14.50
2018-12-17T08:40:38.973Z,14.93
2018-12-17T08:43:06.470Z,15.33
2018-12-17T08:45:34.005Z,12.73
2018-12-17T08:48:01.511Z,15.27
2018-12-17T08:50:29.021Z,14.00
2018-12-17T08:52:56.524Z,16.70
2018-12-17T08:55:24.017Z,16.17
2018-12-17T08:57:51.683Z,15.90
2018-12-17T09:00:19.137Z,12.97
2018-12-17T09:02:46.638Z,14.80
2018-12-17T09:05:14.125Z,16.10
2018-12-17T09:07:42.414Z,15.70
2018-12-17T09:10:09.957Z,11.20
2018-12-17T09:12:37.504Z,12.47
2018-12-17T09:15:05.739Z,14.57
2018-12-17T09:17:33.210Z,12.03
2018-12-17T09:20:00.757Z,10.47
2018-12-17T09:22:29.410Z,11.27
2018-12-17T09:24:56.912Z,12.90
2018-12-17T09:27:24.457Z,11.70
2018-12-17T09:29:51.966Z,10.57
2018-12-17T09:32:20.170Z,9.57
2018-12-17T09:34:47.649Z,10.47
2018-12-17T09:37:15.125Z,9.27
2018-12-17T09:39:42.708Z,11.33
2018-12-17T09:42:10.182Z,9.60
2018-12-17T09:44:37.669Z,10.37
2018-12-17T09:47:08.480Z,8.67
2018-12-17T09:49:35.976Z,8.57
2018-12-17T09:52:03.526Z,7.90
2018-12-17T09:54:31.030Z,10.20
2018-12-17T09:56:58.504Z,11.00
2018-12-17T09:59:25.985Z,8.87
2018-12-17T10:01:53.453Z,11.63
2018-12-17T10:04:20.935Z,9.80
2018-12-17T10:06:48.410Z,11.00
2018-12-17T10:09:15.915Z,11.23
2018-12-17T10:11:43.386Z,9.63
2018-12-17T10:14:11.682Z,11.20
2018-12-17T10:16:39.183Z,7.80
2018-12-17T10:19:06.659Z,8.30
2018-12-17T10:21:34.929Z,10.00
2018-12-17T10:24:02.441Z,12.27
2018-12-17T10:26:29.985Z,7.53
2018-12-17T10:28:57.460Z,12.83
2018-12-17T10:31:24.959Z,7.00
2018-12-17T10:33:52.490Z,7.10
2018-12-17T10:36:19.974Z,7.13
2018-12-17T10:38:47.450Z,7.33
2018-12-17T10:41:14.935Z,6.77
2018-12-17T10:43:42.419Z,6.43
2018-12-17T10:46:09.909Z,12.10
2018-12-17T10:48:37.389Z,8.60
2018-12-17T10:51:04.853Z,7.33
2018-12-17T10:53:32.334Z,7.70
2018-12-17T10:55:59.814Z,6.47
2018-12-17T10:58:27.714Z,7.97
2018-12-17T11:01:00.922Z,7.53
2018-12-17T11:03:30.341Z,8.10
2018-12-17T11:05:58.917Z,6.40
2018-12-17T11:08:26.383Z,5.90
2018-12-17T11:10:53.854Z,4.60
2018-12-17T11:13:21.315Z,6.20
2018-12-17T11:15:48.795Z,6.07
2018-12-17T11:18:16.277Z,5.10
2018-12-17T11:20:43.761Z,4.83
2018-12-17T11:23:11.235Z,5.97
2018-12-17T11:25:38.717Z,5.50
2018-12-17T11:28:06.177Z,6.87
2018-12-17T11:30:33.674Z,5.10
2018-12-17T11:33:01.139Z,5.53
2018-12-17T11:35:28.605Z,5.40
2018-12-17T11:37:56.073Z,6.43
2018-12-17T11:40:23.533Z,5.00
2018-12-17T11:42:51.105Z,4.47
2018-12-17T11:45:18.676Z,4.73
2018-12-17T11:47:46.206Z,5.70
2018-12-17T11:50:13.689Z,4.10
2018-12-17T11:52:42.042Z,5.13
2018-12-17T11:55:09.598Z,6.90
2018-12-17T12:00:40.388Z,4.00
2018-12-17T12:03:07.867Z,4.27
2018-12-17T12:05:35.322Z,5.47
2018-12-17T12:08:03.002Z,3.93
2018-12-17T12:10:30.469Z,4.07
2018-12-17T12:12:57.950Z,7.43
2018-12-17T12:15:25.475Z,6.13
2018-12-17T12:17:53.158Z,6.57
2018-12-17T12:20:20.665Z,3.53
2018-12-17T12:22:48.148Z,8.20
2018-12-17T12:25:15.610Z,4.17
2018-12-17T12:27:43.076Z,3.80
2018-12-17T12:30:11.450Z,3.90
2018-12-17T12:32:38.988Z,4.37
2018-12-17T12:35:08.449Z,9.67
2018-12-17T12:37:36.000Z,4.83
2018-12-17T12:40:05.601Z,4.83
2018-12-17T12:42:33.100Z,4.70
2018-12-17T12:45:01.137Z,4.60
2018-12-17T12:47:28.616Z,4.07
2018-12-17T12:49:56.080Z,3.73
2018-12-17T12:52:23.579Z,4.33
2018-12-17T12:54:51.064Z,5.13
2018-12-17T12:57:18.565Z,5.37
2018-12-17T12:59:46.082Z,4.30
2018-12-17T13:02:13.544Z,3.77
2018-12-17T13:04:41.038Z,3.70
2018-12-17T13:07:08.507Z,4.00
2018-12-17T13:09:36.980Z,4.00
2018-12-17T13:12:04.531Z,4.30
2018-12-17T13:14:32.078Z,7.03
2018-12-17T13:17:01.573Z,3.57
2018-12-17T13:19:29.069Z,3.20
2018-12-17T13:21:56.545Z,3.90
2018-12-17T13:24:24.029Z,3.27
2018-12-17T13:26:51.488Z,5.03
2018-12-17T13:29:19.029Z,3.57
2018-12-17T13:31:46.512Z,4.40
2018-12-17T13:34:13.981Z,3.13
2018-12-17T13:36:41.458Z,3.73
2018-12-17T13:39:08.949Z,4.33
2018-12-17T13:41:36.433Z,3.63
2018-12-17T13:44:03.974Z,5.63
2018-12-17T13:46:31.450Z,3.63
2018-12-17T13:48:59.096Z,6.23
2018-12-17T13:51:33.489Z,3.90
2018-12-17T13:54:00.978Z,3.87
2018-12-17T13:56:28.465Z,3.17
2018-12-17T13:58:56.047Z,3.33
2018-12-17T14:01:23.535Z,5.30
2018-12-17T14:03:51.022Z,4.70
2018-12-17T14:06:19.307Z,4.07
2018-12-17T14:08:46.916Z,3.50
2018-12-17T14:11:14.458Z,4.53
2018-12-17T14:13:41.933Z,4.03
2018-12-17T14:16:14.521Z,4.07
2018-12-17T14:18:47.818Z,3.07
2018-12-17T14:21:20.992Z,3.50
2018-12-17T14:23:48.509Z,7.37
2018-12-17T14:26:15.975Z,3.50
2018-12-17T14:28:43.453Z,3.63
2018-12-17T14:31:10.935Z,3.50
2018-12-17T14:33:38.413Z,4.00
2018-12-17T14:36:08.947Z,3.83
2018-12-17T14:38:36.966Z,6.23
2018-12-17T14:41:04.435Z,3.23
2018-12-17T14:43:31.977Z,5.97
2018-12-17T14:45:59.515Z,6.17
2018-12-17T14:48:26.976Z,3.57
2018-12-17T14:50:54.817Z,5.10
2018-12-17T14:53:22.298Z,5.23
2018-12-17T14:55:49.827Z,4.03
2018-12-17T14:58:17.322Z,3.47
2018-12-17T15:00:44.814Z,5.40
2018-12-17T15:03:12.364Z,6.37
2018-12-17T15:05:39.853Z,4.33
2018-12-17T15:08:07.341Z,6.77
2018-12-17T15:10:34.827Z,4.13
2018-12-17T15:13:02.352Z,3.50
2018-12-17T15:15:29.888Z,7.13
2018-12-17T15:17:57.368Z,2.77
2018-12-17T15:20:24.843Z,2.43
2018-12-17T15:22:52.324Z,2.70
2018-12-17T15:25:20.453Z,3.10
2018-12-17T15:27:48.116Z,2.60
2018-12-17T15:30:15.673Z,3.47
2018-12-17T15:32:43.155Z,3.50
2018-12-17T15:35:10.633Z,2.57
2018-12-17T15:37:38.127Z,3.10
2018-12-17T15:40:06.123Z,3.50
2018-12-17T15:42:40.625Z,2.30
2018-12-17T15:45:04.324Z,3.27
2018-12-17T15:47:31.849Z,2.27
2018-12-17T15:49:59.359Z,3.33
2018-12-17T15:52:26.926Z,5.87
2018-12-17T15:54:54.457Z,3.40
2018-12-17T15:57:21.940Z,2.10
2018-12-17T15:59:49.419Z,3.10
2018-12-17T16:02:16.893Z,2.60
2018-12-17T16:04:44.394Z,2.80
2018-12-17T16:07:11.870Z,3.00
2018-12-17T16:09:39.361Z,5.17
2018-12-17T16:12:06.859Z,5.17
2018-12-17T16:14:34.352Z,3.77
2018-12-17T16:17:01.932Z,3.47
2018-12-17T16:19:29.441Z,4.60
2018-12-17T16:21:56.955Z,3.20
2018-12-17T16:24:25.364Z,3.23
2018-12-17T16:26:52.845Z,3.63
2018-12-17T16:29:20.329Z,2.67
2018-12-17T16:31:47.792Z,2.90
2018-12-17T16:34:15.275Z,7.07
2018-12-17T16:36:42.923Z,5.57
2018-12-17T16:39:10.414Z,3.50
2018-12-17T16:41:37.896Z,5.33
2018-12-17T16:44:05.445Z,4.23
2018-12-17T16:46:32.911Z,4.33
2018-12-17T16:49:00.398Z,4.00
2018-12-17T16:51:27.869Z,6.93
2018-12-17T16:53:55.366Z,3.87
2018-12-17T16:56:22.825Z,7.47
2018-12-17T16:58:50.287Z,4.10
2018-12-17T17:01:17.761Z,5.47
2018-12-17T17:03:45.263Z,4.17
2018-12-17T17:06:12.742Z,5.50
2018-12-17T17:08:40.219Z,4.83
2018-12-17T17:11:07.707Z,6.53
2018-12-17T17:13:35.254Z,6.13
2018-12-17T17:16:02.787Z,5.97
2018-12-17T17:18:30.278Z,5.60
2018-12-17T17:20:57.766Z,6.40
2018-12-17T17:23:25.242Z,5.10
2018-12-17T17:25:52.752Z,6.47
2018-12-17T17:28:20.248Z,5.43
2018-12-17T17:30:47.704Z,5.30
2018-12-17T17:33:15.207Z,5.53
2018-12-17T17:35:42.686Z,6.50
2018-12-17T17:38:10.178Z,6.67
2018-12-17T17:40:37.672Z,9.27
2018-12-17T17:43:05.138Z,11.23
2018-12-17T17:45:32.654Z,8.93
2018-12-17T17:48:00.141Z,8.57
2018-12-17T17:50:27.642Z,6.17
2018-12-17T17:52:55.098Z,6.93
2018-12-17T17:55:22.593Z,6.97
2018-12-17T17:57:50.072Z,9.20
2018-12-17T18:00:17.571Z,6.60
2018-12-17T18:02:45.169Z,6.23
2018-12-17T18:05:12.703Z,7.43
2018-12-17T18:07:40.177Z,7.70
2018-12-17T18:10:08.459Z,7.33
2018-12-17T18:12:35.948Z,8.67
2018-12-17T18:15:03.966Z,7.23
2018-12-17T18:17:31.445Z,8.00
2018-12-17T18:19:59.058Z,6.77
2018-12-17T18:22:26.527Z,9.77
2018-12-17T18:24:54.075Z,8.17
2018-12-17T18:27:21.707Z,7.33
2018-12-17T18:29:49.187Z,7.43
2018-12-17T18:32:17.388Z,7.47
2018-12-17T18:34:44.869Z,8.53
2018-12-17T18:37:12.379Z,7.43
2018-12-17T18:39:39.847Z,7.63
2018-12-17T18:42:07.333Z,7.57
2018-12-17T18:44:34.811Z,11.87
2018-12-17T18:47:02.278Z,7.37
2018-12-17T18:49:29.755Z,7.23
2018-12-17T18:51:57.235Z,9.27
2018-12-17T18:54:24.723Z,10.07
2018-12-17T18:56:52.271Z,8.90
2018-12-17T18:59:19.749Z,7.67
2018-12-17T19:01:47.227Z,7.33
2018-12-17T19:04:14.729Z,8.47
2018-12-17T19:06:42.225Z,7.23
2018-12-17T19:09:09.709Z,7.47
2018-12-17T19:11:37.207Z,6.67
2018-12-17T19:14:04.680Z,8.50
2018-12-17T19:16:32.154Z,9.77
2018-12-17T19:18:59.962Z,9.20
2018-12-17T19:21:27.422Z,6.77
2018-12-17T19:23:54.902Z,10.07
2018-12-17T19:26:22.492Z,8.97
2018-12-17T19:28:49.966Z,22.07
2018-12-17T19:31:17.439Z,9.17
2018-12-17T19:33:44.903Z,8.80
2018-12-17T19:36:12.389Z,10.63
2018-12-17T19:38:39.867Z,7.80
2018-12-17T19:41:07.412Z,11.77
2018-12-17T19:43:34.894Z,8.50
2018-12-17T19:46:02.375Z,8.33
2018-12-17T19:48:29.866Z,8.57
2018-12-17T19:50:57.390Z,9.03
2018-12-17T19:53:24.860Z,11.83
2018-12-17T19:55:52.361Z,12.33
2018-12-17T19:58:20.699Z,8.87
2018-12-17T20:00:48.187Z,10.13
2018-12-17T20:03:15.681Z,10.33
2018-12-17T20:05:44.330Z,11.50
2018-12-17T20:08:11.830Z,14.20
2018-12-17T20:10:39.860Z,9.63
2018-12-17T20:13:07.345Z,10.37
2018-12-17T20:15:34.825Z,10.43
2018-12-17T20:18:02.431Z,11.63
2018-12-17T20:20:29.899Z,9.43
2018-12-17T20:22:58.084Z,9.97
2018-12-17T20:25:25.893Z,8.10
2018-12-17T20:27:53.373Z,9.07
2018-12-17T20:30:20.916Z,12.77
2018-12-17T20:32:53.583Z,9.63
2018-12-17T20:35:17.875Z,9.17
2018-12-17T20:37:45.367Z,8.27
2018-12-17T20:40:12.929Z,8.80
2018-12-17T20:42:40.458Z,9.50
2018-12-17T20:45:08.188Z,10.50
2018-12-17T20:47:36.769Z,9.57
2018-12-17T20:50:05.725Z,8.07
2018-12-17T20:52:33.302Z,8.97
2018-12-17T20:55:00.800Z,8.90
2018-12-17T20:57:28.347Z,7.97
2018-12-17T20:59:55.819Z,9.00
2018-12-17T21:02:23.302Z,7.57
2018-12-17T21:04:50.777Z,7.90
2018-12-17T21:07:18.323Z,8.50
2018-12-17T21:09:45.804Z,8.90
2018-12-17T21:12:13.269Z,7.73
2018-12-17T21:14:40.748Z,9.57
2018-12-17T21:17:08.466Z,9.00
2018-12-17T21:19:35.948Z,10.07
2018-12-17T21:22:07.349Z,9.03
2018-12-17T21:24:34.826Z,8.43
2018-12-17T21:27:02.321Z,9.17
2018-12-17T21:29:29.932Z,8.67
2018-12-17T21:31:57.402Z,9.70
2018-12-17T21:34:24.903Z,9.30
2018-12-17T21:36:52.367Z,8.77
2018-12-17T21:39:19.842Z,10.77
2018-12-17T21:41:47.326Z,8.47
2018-12-17T21:44:14.869Z,10.37
2018-12-17T21:46:42.533Z,8.80
2018-12-17T21:49:10.011Z,9.93
2018-12-17T21:51:37.491Z,8.73
2018-12-17T21:54:05.062Z,8.50
2018-12-17T21:56:32.557Z,8.73
2018-12-17T21:59:00.131Z,10.60
2018-12-17T22:01:27.667Z,8.83
2018-12-17T22:03:55.954Z,9.37
2018-12-17T22:06:23.428Z,7.90
2018-12-17T22:08:50.936Z,8.33
2018-12-17T22:11:18.396Z,7.97
2018-12-17T22:13:45.890Z,8.43
2018-12-17T22:16:13.404Z,9.07
2018-12-17T22:18:40.876Z,8.13
2018-12-17T22:21:08.336Z,8.30
2018-12-17T22:23:36.207Z,8.83
2018-12-17T22:26:03.960Z,7.80
2018-12-17T22:28:31.439Z,9.47
2018-12-17T22:30:58.920Z,8.73
2018-12-17T22:33:26.414Z,8.40
2018-12-17T22:35:53.864Z,10.07
2018-12-17T22:38:21.348Z,9.33
2018-12-17T22:40:48.842Z,8.17
2018-12-17T22:43:16.370Z,8.07
2018-12-17T22:45:43.846Z,8.60
2018-12-17T22:48:11.328Z,8.00
2018-12-17T22:50:38.813Z,9.10
2018-12-17T22:53:06.283Z,7.50
2018-12-17T22:55:33.768Z,9.60
2018-12-17T22:58:01.269Z,7.87
2018-12-17T23:00:28.734Z,7.80
2018-12-17T23:02:56.209Z,6.90
2018-12-17T23:05:23.835Z,9.10
2018-12-17T23:07:51.316Z,9.37
2018-12-17T23:10:32.604Z,8.83
2018-12-17T23:13:12.111Z,6.97
2018-12-17T23:15:51.515Z,7.70
2018-12-17T23:18:18.568Z,8.30
2018-12-17T23:20:46.050Z,7.30
2018-12-17T23:23:13.566Z,9.93
2018-12-17T23:25:41.111Z,7.17
2018-12-17T23:28:08.822Z,8.73
2018-12-17T23:30:36.370Z,8.40
2018-12-17T23:33:04.847Z,8.60
2018-12-17T23:35:32.351Z,9.87
2018-12-17T23:37:59.823Z,9.77
2018-12-17T23:40:27.405Z,7.67
2018-12-17T23:42:55.228Z,7.20
2018-12-17T23:45:22.691Z,8.83
2018-12-17T23:47:50.158Z,9.67
2018-12-17T23:50:17.693Z,7.23
2018-12-17T23:52:45.145Z,9.90
2018-12-17T23:55:12.671Z,9.57
2018-12-17T23:57:40.148Z,7.27
